Flight Briefing for CPX790

Departure Arrival
Kingsford Smith International Airport (YSSY)
Click to view FAA NOTAMS
Changi International Airport (WSSS)
Click to view FAA NOTAMS
Departure Time Arrival Time
N/A N/A
Aircraft Distance
B747-400BCF 3402nm
Departure METAR Arrival METAR
YSSY 250400Z 31005KT CAVOK 26/02 Q1015 NOSIG WSSS 250400Z 17005KT 120V180 9999 SCT018TCU BKN350 31/26 Q1011 NOSIG
Suggested Route
KADOM A576 PKS/N0482F360 A576 AS A587 ONOXA/N0482F380 G326 BLI M635 SURGA


View recent IFR Routes data
Notes



Charts and Procedures

Charts for YSSY
No chart available
Charts for WSSS
No chart available

Windy.com Weather Map